createdAt,value
2022-08-17T00:05:42.048Z,4.10
2022-08-17T00:08:51.405Z,3.72
2022-08-17T00:12:41.577Z,4.03
2022-08-17T00:15:20.270Z,4.37
2022-08-17T00:18:56.774Z,3.80
2022-08-17T00:22:32.353Z,4.15
2022-08-17T00:25:17.486Z,4.12
2022-08-17T00:28:20.943Z,3.85
2022-08-17T00:31:24.596Z,3.80
2022-08-17T00:34:27.753Z,3.78
2022-08-17T00:37:30.946Z,4.03
2022-08-17T00:40:44.607Z,4.18
2022-08-17T00:43:54.222Z,3.65
2022-08-17T00:46:56.966Z,3.70
2022-08-17T00:50:00.427Z,4.00
2022-08-17T00:53:04.884Z,4.03
2022-08-17T00:56:12.103Z,4.15
2022-08-17T00:59:19.525Z,4.10
2022-08-17T01:02:23.083Z,3.83
2022-08-17T01:05:29.560Z,3.70
2022-08-17T01:08:33.123Z,3.85
2022-08-17T01:11:37.237Z,4.00
2022-08-17T01:14:41.355Z,3.45
2022-08-17T01:17:46.564Z,4.10
2022-08-17T01:20:55.085Z,4.10
2022-08-17T01:23:58.262Z,3.55
2022-08-17T01:27:01.754Z,3.40
2022-08-17T01:30:57.226Z,3.60
2022-08-17T01:33:34.081Z,3.87
2022-08-17T01:36:39.796Z,3.62
2022-08-17T01:39:52.644Z,4.37
2022-08-17T01:42:59.073Z,3.90
2022-08-17T01:46:03.665Z,3.55
2022-08-17T01:49:08.496Z,4.00
2022-08-17T01:52:13.227Z,3.25
2022-08-17T01:55:23.454Z,3.67
2022-08-17T01:58:32.201Z,3.25
2022-08-17T02:01:35.841Z,3.45
2022-08-17T02:04:38.864Z,3.75
2022-08-17T02:07:59.511Z,3.35
2022-08-17T02:11:08.939Z,3.47
2022-08-17T02:14:14.593Z,3.22
2022-08-17T02:17:17.574Z,3.40
2022-08-17T02:20:41.171Z,3.50
2022-08-17T02:23:48.335Z,3.55
2022-08-17T02:26:51.100Z,3.97
2022-08-17T02:29:54.428Z,3.97
2022-08-17T02:32:57.516Z,4.10
2022-08-17T02:36:00.548Z,3.85
2022-08-17T02:39:06.132Z,4.00
2022-08-17T02:42:09.190Z,4.10
2022-08-17T02:45:18.036Z,4.15
2022-08-17T02:48:30.689Z,3.70
2022-08-17T02:51:35.323Z,4.37
2022-08-17T02:54:40.871Z,4.18
2022-08-17T02:57:45.397Z,4.15
2022-08-17T03:00:48.792Z,4.25
2022-08-17T03:03:51.530Z,3.95
2022-08-17T03:06:54.526Z,3.80
2022-08-17T03:09:57.365Z,4.32
2022-08-17T03:13:00.654Z,4.00
2022-08-17T03:16:03.814Z,4.37
2022-08-17T03:19:06.835Z,3.83
2022-08-17T03:22:36.000Z,3.87
2022-08-17T03:25:36.342Z,4.20
2022-08-17T03:28:39.199Z,4.03
2022-08-17T03:31:42.110Z,3.65
2022-08-17T03:34:44.829Z,4.18
2022-08-17T03:37:47.941Z,4.28
2022-08-17T03:41:06.402Z,3.85
2022-08-17T03:44:09.337Z,4.22
2022-08-17T03:47:30.593Z,4.40
2022-08-17T03:50:52.741Z,4.00
2022-08-17T03:54:16.909Z,4.00
2022-08-17T03:57:19.878Z,4.15
2022-08-17T04:00:22.830Z,4.45
2022-08-17T04:03:25.781Z,4.65
2022-08-17T04:06:28.785Z,4.47
2022-08-17T04:09:31.786Z,4.40
2022-08-17T04:12:50.066Z,4.60
2022-08-17T04:15:53.652Z,4.72
2022-08-17T04:18:56.563Z,4.47
2022-08-17T04:21:59.565Z,4.22
2022-08-17T04:25:06.340Z,4.60
2022-08-17T04:28:16.008Z,5.10
2022-08-17T04:31:19.127Z,4.57
2022-08-17T04:34:23.023Z,4.78
2022-08-17T04:37:25.636Z,4.78
2022-08-17T04:40:47.656Z,4.65
2022-08-17T04:43:55.144Z,4.47
2022-08-17T04:46:58.182Z,4.00
2022-08-17T04:50:02.504Z,4.43
2022-08-17T04:53:06.000Z,4.55
2022-08-17T04:56:11.875Z,4.15
2022-08-17T04:59:22.181Z,4.15
2022-08-17T05:02:24.895Z,4.37
2022-08-17T05:05:34.699Z,3.75
2022-08-17T05:08:37.639Z,3.65
2022-08-17T05:11:44.841Z,3.83
2022-08-17T05:14:47.780Z,3.60
2022-08-17T05:17:50.850Z,3.67
2022-08-17T05:20:56.802Z,3.83
2022-08-17T05:24:00.072Z,3.72
2022-08-17T05:27:06.049Z,3.60
2022-08-17T05:30:10.121Z,3.50
2022-08-17T05:33:16.817Z,3.70
2022-08-17T05:36:43.442Z,3.33
2022-08-17T05:39:42.668Z,3.08
2022-08-17T05:42:45.589Z,3.45
2022-08-17T05:45:56.722Z,3.08
2022-08-17T05:49:04.613Z,3.53
2022-08-17T05:52:20.736Z,3.50
2022-08-17T05:55:49.051Z,3.10
2022-08-17T05:59:05.237Z,3.12
2022-08-17T06:02:11.112Z,3.53
2022-08-17T06:05:55.425Z,3.53
2022-08-17T06:09:00.904Z,3.40
2022-08-17T06:12:24.995Z,3.45
2022-08-17T06:15:31.396Z,3.08
2022-08-17T06:19:04.575Z,3.10
2022-08-17T06:22:10.467Z,3.37
2022-08-17T06:25:45.357Z,3.58
2022-08-17T06:28:56.555Z,3.10
2022-08-17T06:31:59.567Z,3.55
2022-08-17T06:35:03.292Z,3.65
2022-08-17T06:38:37.710Z,3.60
2022-08-17T06:41:47.570Z,3.50
2022-08-17T06:45:03.601Z,3.33
2022-08-17T06:48:24.370Z,3.50
2022-08-17T06:51:34.678Z,3.10
2022-08-17T06:54:51.102Z,3.67
2022-08-17T06:58:05.228Z,3.25
2022-08-17T07:41:57.504Z,3.80
2022-08-17T07:45:23.355Z,3.50
2022-08-17T07:48:26.992Z,3.33
2022-08-17T07:51:55.532Z,3.58
2022-08-17T07:54:59.496Z,3.40
2022-08-17T07:58:03.497Z,3.55
2022-08-17T08:01:10.685Z,3.30
2022-08-17T08:04:43.172Z,3.20
2022-08-17T08:07:55.016Z,3.53
2022-08-17T08:11:07.312Z,3.15
2022-08-17T08:14:34.143Z,3.20
2022-08-17T08:17:49.507Z,3.58
2022-08-17T08:20:57.824Z,3.08
2022-08-17T08:24:19.618Z,3.10
2022-08-17T08:28:15.791Z,3.37
2022-08-17T08:31:24.530Z,3.10
2022-08-17T08:35:01.945Z,3.53
2022-08-17T08:38:10.909Z,2.97
2022-08-17T08:41:40.640Z,3.17
2022-08-17T08:48:57.767Z,3.00
2022-08-17T08:52:04.957Z,3.03
2022-08-17T08:55:14.883Z,3.22
2022-08-17T08:58:41.807Z,3.58
2022-08-17T09:02:18.747Z,2.93
2022-08-17T09:05:54.178Z,2.60
2022-08-17T09:09:27.956Z,2.53
2022-08-17T09:13:10.254Z,2.50
2022-08-17T09:16:20.478Z,2.70
2022-08-17T09:19:49.801Z,2.62
2022-08-17T09:23:07.204Z,2.40
2022-08-17T09:26:28.101Z,2.20
2022-08-17T09:29:47.985Z,2.25
2022-08-17T09:33:02.332Z,2.35
2022-08-17T09:36:23.002Z,2.35
2022-08-17T09:39:34.639Z,3.45
2022-08-17T09:43:00.898Z,2.10
2022-08-17T09:46:11.448Z,2.40
2022-08-17T09:49:49.598Z,2.25
2022-08-17T09:52:59.441Z,2.15
2022-08-17T09:56:24.217Z,2.28
2022-08-17T09:59:36.559Z,2.22
2022-08-17T10:03:00.571Z,1.83
2022-08-17T10:06:57.040Z,2.28
2022-08-17T10:10:14.353Z,2.28
2022-08-17T10:13:52.745Z,2.30
2022-08-17T10:17:20.734Z,2.20
2022-08-17T10:21:20.715Z,2.37
2022-08-17T10:25:21.477Z,2.33
2022-08-17T10:28:28.925Z,2.22
2022-08-17T10:31:41.073Z,2.15
2022-08-17T10:35:25.861Z,2.20
2022-08-17T10:38:37.126Z,2.08
2022-08-17T12:43:56.562Z,2.20
2022-08-17T12:47:19.358Z,1.52
2022-08-17T12:50:29.014Z,1.52
2022-08-17T12:53:37.078Z,1.60
2022-08-17T12:56:40.795Z,1.67
2022-08-17T12:59:53.769Z,1.55
2022-08-17T13:03:07.915Z,1.40
2022-08-17T13:06:14.931Z,1.45
2022-08-17T13:09:35.692Z,1.40
2022-08-17T13:12:43.203Z,1.50
2022-08-17T13:15:56.378Z,1.40
2022-08-17T13:19:15.225Z,1.27
2022-08-17T13:22:25.532Z,1.50
2022-08-17T13:25:29.977Z,1.50
2022-08-17T13:28:35.946Z,1.30
2022-08-17T13:31:52.148Z,1.60
2022-08-17T13:35:15.038Z,1.35
2022-08-17T13:39:04.606Z,1.70
2022-08-17T13:42:52.381Z,1.50
2022-08-17T13:46:08.861Z,1.30
2022-08-17T13:49:12.150Z,1.50
2022-08-17T13:52:35.706Z,1.40
2022-08-17T13:55:48.990Z,1.50
2022-08-17T13:58:55.736Z,1.25
2022-08-17T14:01:59.014Z,1.30
2022-08-17T14:05:02.137Z,1.40
2022-08-17T14:08:13.205Z,1.30
2022-08-17T14:11:17.132Z,1.42
2022-08-17T14:14:21.835Z,1.50
2022-08-17T14:17:26.056Z,1.20
2022-08-17T14:20:29.619Z,1.75
2022-08-17T14:23:32.966Z,1.45
2022-08-17T14:26:36.168Z,1.33
2022-08-17T14:29:41.211Z,1.37
2022-08-17T14:32:45.179Z,1.60
2022-08-17T14:35:54.899Z,1.75
2022-08-17T14:38:57.773Z,1.37
2022-08-17T15:37:34.130Z,1.70
2022-08-17T15:40:45.614Z,1.40
2022-08-17T15:43:52.382Z,1.80
2022-08-17T15:46:56.012Z,1.42
2022-08-17T15:50:00.376Z,1.50
2022-08-17T15:53:04.916Z,1.40
2022-08-17T15:56:07.935Z,1.42
2022-08-17T15:59:10.878Z,1.45
2022-08-17T16:03:44.223Z,1.48
2022-08-17T16:06:01.999Z,1.58
2022-08-17T16:09:05.131Z,1.52
2022-08-17T16:12:28.252Z,1.40
2022-08-17T16:15:32.938Z,1.48
2022-08-17T16:18:36.628Z,1.60
2022-08-17T16:21:42.790Z,1.85
2022-08-17T16:24:57.010Z,1.70
2022-08-17T16:28:00.776Z,2.03
2022-08-17T16:31:07.951Z,1.75
2022-08-17T16:34:16.731Z,1.83
2022-08-17T16:48:29.726Z,1.58
2022-08-17T16:51:33.190Z,1.92
2022-08-17T16:54:38.684Z,1.70
2022-08-17T16:57:50.085Z,1.70
2022-08-17T17:00:54.478Z,1.70
2022-08-17T17:04:02.823Z,1.90
2022-08-17T17:07:33.861Z,2.03
2022-08-17T17:10:40.667Z,1.80
2022-08-17T17:13:51.829Z,1.90
2022-08-17T17:17:11.859Z,2.30
2022-08-17T17:20:24.987Z,2.08
2022-08-17T17:23:46.290Z,3.22
2022-08-17T17:27:09.296Z,3.17
2022-08-17T17:30:12.806Z,2.55
2022-08-17T17:33:25.048Z,2.03
2022-08-17T17:36:38.397Z,2.10
2022-08-17T17:40:19.126Z,2.10
2022-08-17T17:43:38.975Z,2.00
2022-08-17T17:46:48.749Z,1.77
2022-08-17T17:49:52.008Z,2.10
2022-08-17T17:53:11.381Z,2.08
2022-08-17T17:56:44.158Z,2.12
2022-08-17T17:59:59.982Z,2.05
2022-08-17T18:03:12.037Z,2.40
2022-08-17T18:06:48.192Z,2.58
2022-08-17T18:09:54.044Z,2.55
2022-08-17T18:13:14.467Z,2.22
2022-08-17T18:16:17.400Z,2.22
2022-08-17T18:19:21.468Z,2.20
2022-08-17T18:22:25.422Z,2.95
2022-08-17T18:25:45.112Z,1.85
2022-08-17T18:28:51.384Z,2.20
2022-08-17T18:32:21.746Z,2.40
2022-08-17T18:35:29.215Z,2.00
2022-08-17T18:38:42.095Z,2.30
2022-08-17T18:41:51.270Z,2.60
2022-08-17T18:44:55.560Z,2.12
2022-08-17T18:48:33.040Z,2.15
2022-08-17T18:51:42.448Z,2.53
2022-08-17T18:55:20.063Z,2.40
2022-08-17T18:58:25.737Z,2.50
2022-08-17T19:01:52.236Z,2.80
2022-08-17T19:05:09.611Z,2.40
2022-08-17T19:08:14.244Z,2.05
2022-08-17T19:11:26.297Z,2.08
2022-08-17T19:14:31.114Z,2.28
2022-08-17T19:18:16.407Z,2.03
2022-08-17T19:21:42.351Z,2.20
2022-08-17T19:24:47.563Z,2.10
2022-08-17T19:28:15.341Z,2.33
2022-08-17T19:31:29.961Z,2.00
2022-08-17T19:34:35.376Z,2.08
2022-08-17T19:37:47.522Z,2.33
2022-08-17T19:41:16.109Z,1.92
2022-08-17T19:44:33.985Z,2.17
2022-08-17T19:47:54.861Z,2.30
2022-08-17T19:51:07.560Z,2.55
2022-08-17T19:54:38.127Z,2.85
2022-08-17T19:57:51.081Z,2.62
2022-08-17T20:00:55.417Z,2.15
2022-08-17T20:04:39.192Z,2.50
2022-08-17T20:07:57.355Z,2.30
2022-08-17T20:11:09.006Z,2.03
2022-08-17T20:14:22.480Z,2.42
2022-08-17T20:17:31.791Z,2.08
2022-08-17T20:20:51.854Z,2.30
2022-08-17T20:24:01.010Z,2.50
2022-08-17T20:27:12.796Z,2.28
2022-08-17T20:30:42.106Z,2.28
2022-08-17T20:33:44.830Z,2.10
2022-08-17T20:36:58.465Z,1.75
2022-08-17T20:40:04.255Z,2.25
2022-08-17T20:43:33.826Z,2.22
2022-08-17T20:46:36.445Z,2.47
2022-08-17T20:49:48.397Z,2.00
2022-08-17T20:52:57.156Z,2.42
2022-08-17T20:56:00.190Z,2.40
2022-08-17T20:59:03.184Z,2.45
2022-08-17T21:02:12.441Z,2.20
2022-08-17T21:06:00.338Z,2.22
2022-08-17T21:09:12.726Z,2.20
2022-08-17T21:12:39.735Z,2.22
2022-08-17T21:15:50.023Z,2.40
2022-08-17T21:19:10.163Z,2.97
2022-08-17T21:22:25.213Z,2.70
2022-08-17T21:25:58.307Z,2.55
2022-08-17T21:29:31.608Z,2.42
2022-08-17T21:32:37.436Z,2.30
2022-08-17T21:36:16.015Z,2.25
2022-08-17T21:39:33.037Z,2.80
2022-08-17T21:42:39.610Z,2.78
2022-08-17T21:45:43.554Z,2.80
2022-08-17T21:48:48.215Z,2.40
2022-08-17T21:51:55.165Z,2.83
2022-08-17T21:55:03.333Z,2.80
2022-08-17T21:58:29.032Z,2.42
2022-08-17T22:01:36.498Z,2.33
2022-08-17T22:04:41.724Z,2.70
2022-08-17T22:07:50.858Z,2.72
2022-08-17T22:11:01.583Z,2.50
2022-08-17T22:14:17.108Z,2.30
2022-08-17T22:17:24.844Z,2.33
2022-08-17T22:20:28.117Z,2.40
2022-08-17T22:24:01.392Z,3.05
2022-08-17T22:27:11.836Z,2.58
2022-08-17T22:30:24.343Z,2.50
2022-08-17T22:33:33.398Z,2.80
2022-08-17T22:39:40.847Z,2.33
2022-08-17T22:42:49.928Z,2.20
2022-08-17T22:45:57.532Z,2.87
2022-08-17T22:49:00.709Z,2.80
2022-08-17T22:52:06.874Z,2.95
